Time;durP1;ratioP1;P1;durP2;ratioP2;P2;SDS_P1;SDS_P2;PMS_P1;PMS_P2;Temp;Humidity;BMP_temperature;BMP_pressure;BME280_temperature;BME280_humidity;BME280_pressure;Samples;Min_cycle;Max_cycle;Signal;HPM_P1;HPM_P2
2023/08/31 00:01:59;;;;;;;7.22;2.83;;;;;;;;;;6224251;28;20041;-68
2023/08/31 00:05:01;;;;;;;;;;;;;;;;;;6236326;28;20056;-69
2023/08/31 00:08:03;;;;;;;6.22;2.42;;;;;;;;;;6222072;28;19983;-68
2023/08/31 00:11:05;;;;;;;5.35;3.03;;;;;;;;;;6286776;28;20057;-68
2023/08/31 00:14:07;;;;;;;8.32;2.83;;;;;;;;;;6253403;28;20044;-68
2023/08/31 00:17:09;;;;;;;7.40;2.50;;;;;;;;;;6259405;28;20037;-68
2023/08/31 00:20:12;;;;;;;6.20;2.67;;;;;;;;;;6274384;28;20041;-68
2023/08/31 00:23:14;;;;;;;6.40;2.85;;;;;;;;;;6268623;28;20128;-69
2023/08/31 00:26:16;;;;;;;8.75;2.35;;;;;;;;;;6247049;28;20038;-68
2023/08/31 00:29:23;;;;;;;4.25;2.38;;;;;;;;;;6255359;27;20049;-68
2023/08/31 00:32:25;;;;;;;6.28;2.33;;;;;;;;;;6272509;27;20042;-68
2023/08/31 00:35:27;;;;;;;9.30;2.38;;;;;;;;;;6271630;27;20834;-67
2023/08/31 00:38:31;;;;;;;8.63;2.10;;;;;;;;;;6258555;27;20081;-68
2023/08/31 00:41:35;;;;;;;6.75;2.53;;;;;;;;;;6249260;27;20519;-68
2023/08/31 00:44:37;;;;;;;7.03;2.78;;;;;;;;;;6244633;27;20046;-68
2023/08/31 00:47:39;;;;;;;4.07;1.92;;;;;;;;;;6272127;27;20061;-68
2023/08/31 00:50:41;;;;;;;5.78;2.42;;;;;;;;;;6248837;27;20049;-68
2023/08/31 00:53:43;;;;;;;6.05;2.38;;;;;;;;;;6248475;27;20069;-68
2023/08/31 00:56:45;;;;;;;6.30;3.78;;;;;;;;;;6227284;28;20053;-68
2023/08/31 00:59:47;;;;;;;6.97;2.85;;;;;;;;;;6275454;27;20107;-68
2023/08/31 01:02:56;;;;;;;6.10;2.95;;;;;;;;;;6267936;27;20124;-68
2023/08/31 01:06:10;;;;;;;3.92;2.25;;;;;;;;;;6237931;28;20049;-68
2023/08/31 01:09:26;;;;;;;4.78;3.05;;;;;;;;;;6224228;28;20034;-68
2023/08/31 01:12:47;;;;;;;7.47;2.85;;;;;;;;;;6239575;28;20535;-68
2023/08/31 01:15:53;;;;;;;5.07;2.05;;;;;;;;;;6231530;27;20276;-68
2023/08/31 01:18:56;;;;;;;7.10;3.10;;;;;;;;;;6211460;28;20729;-68
2023/08/31 01:22:16;;;;;;;8.27;2.88;;;;;;;;;;6270717;27;20437;-68
2023/08/31 01:25:21;;;;;;;4.90;2.85;;;;;;;;;;6248084;27;20440;-68
2023/08/31 01:28:25;;;;;;;6.07;3.15;;;;;;;;;;6246630;27;20053;-68
2023/08/31 01:31:45;;;;;;;5.05;2.92;;;;;;;;;;6227660;28;20515;-68
2023/08/31 01:34:53;;;;;;;6.15;3.08;;;;;;;;;;6234347;28;20045;-68
2023/08/31 01:38:00;;;;;;;6.13;3.03;;;;;;;;;;6220387;27;20049;-68
2023/08/31 01:41:10;;;;;;;4.90;2.45;;;;;;;;;;6278649;27;20054;-68
2023/08/31 01:44:16;;;;;;;8.65;3.03;;;;;;;;;;6215787;28;20049;-68
2023/08/31 01:47:19;;;;;;;8.27;3.00;;;;;;;;;;6253093;27;20075;-68
2023/08/31 01:50:21;;;;;;;7.72;2.80;;;;;;;;;;6238337;27;20049;-68
2023/08/31 01:53:23;;;;;;;8.63;2.78;;;;;;;;;;6234893;27;20071;-68
2023/08/31 01:56:26;;;;;;;7.43;2.50;;;;;;;;;;6244875;27;20045;-68
2023/08/31 01:59:28;;;;;;;6.95;3.85;;;;;;;;;;6242179;28;20053;-68
2023/08/31 02:02:30;;;;;;;5.70;2.47;;;;;;;;;;6228328;28;20048;-68
2023/08/31 02:05:34;;;;;;;6.45;3.05;;;;;;;;;;6249709;27;20492;-68
2023/08/31 02:08:36;;;;;;;6.05;3.63;;;;;;;;;;6317944;27;20045;-68
2023/08/31 02:11:38;;;;;;;5.93;2.83;;;;;;;;;;6223761;27;20444;-69
2023/08/31 02:14:40;;;;;;;6.40;3.65;;;;;;;;;;6234767;28;20081;-68
2023/08/31 02:17:43;;;;;;;5.63;2.88;;;;;;;;;;6305487;27;20054;-68
2023/08/31 02:20:45;;;;;;;7.05;3.80;;;;;;;;;;6238208;27;20511;-69
2023/08/31 02:23:48;;;;;;;5.63;3.15;;;;;;;;;;6245938;27;20045;-69
2023/08/31 02:26:50;;;;;;;5.00;2.88;;;;;;;;;;6249909;28;20041;-68
2023/08/31 02:29:52;;;;;;;6.93;2.95;;;;;;;;;;6221545;27;20516;-68
2023/08/31 02:32:54;;;;;;;4.28;2.75;;;;;;;;;;6278755;27;20193;-68
2023/08/31 02:35:56;;;;;;;6.78;3.15;;;;;;;;;;6228425;27;20134;-68
2023/08/31 02:38:58;;;;;;;5.72;2.42;;;;;;;;;;6254426;27;20050;-69
2023/08/31 02:42:00;;;;;;;5.78;3.22;;;;;;;;;;6277976;27;20195;-69
2023/08/31 02:45:03;;;;;;;7.65;2.80;;;;;;;;;;6250405;27;20049;-69
2023/08/31 02:48:08;;;;;;;6.63;3.60;;;;;;;;;;6282956;27;20719;-69
2023/08/31 02:51:13;;;;;;;6.85;3.67;;;;;;;;;;6253421;27;20035;-68
2023/08/31 02:54:17;;;;;;;7.07;2.83;;;;;;;;;;6240593;27;20045;-68
2023/08/31 02:57:21;;;;;;;6.68;3.58;;;;;;;;;;6227644;28;20045;-68
2023/08/31 03:00:26;;;;;;;6.15;3.72;;;;;;;;;;6221904;28;20719;-68
2023/08/31 03:03:29;;;;;;;7.22;3.10;;;;;;;;;;6231231;28;20050;-68
2023/08/31 03:06:34;;;;;;;7.38;4.32;;;;;;;;;;6223690;27;20076;-68
2023/08/31 03:09:37;;;;;;;8.02;3.15;;;;;;;;;;6284014;27;20053;-68
2023/08/31 03:12:39;;;;;;;4.35;2.42;;;;;;;;;;6274320;27;20596;-68
2023/08/31 03:15:41;;;;;;;9.32;4.72;;;;;;;;;;6248315;27;20056;-68
2023/08/31 03:18:43;;;;;;;9.93;3.30;;;;;;;;;;6252716;27;20052;-68
2023/08/31 03:21:47;;;;;;;6.07;3.92;;;;;;;;;;6222945;27;20486;-68
2023/08/31 03:24:49;;;;;;;8.93;3.67;;;;;;;;;;6280395;27;20725;-68
2023/08/31 03:27:51;;;;;;;6.38;3.45;;;;;;;;;;6255664;27;20618;-68
2023/08/31 03:30:56;;;;;;;8.50;3.30;;;;;;;;;;6245642;27;20046;-68
2023/08/31 03:33:59;;;;;;;5.07;2.85;;;;;;;;;;6277750;27;20690;-68
2023/08/31 03:37:01;;;;;;;6.68;3.03;;;;;;;;;;6239136;27;20033;-68
2023/08/31 03:40:06;;;;;;;9.25;3.25;;;;;;;;;;6248949;27;20102;-68
2023/08/31 03:43:16;;;;;;;6.55;3.10;;;;;;;;;;6272323;27;20049;-68
2023/08/31 03:46:22;;;;;;;5.63;3.50;;;;;;;;;;6227958;28;20108;-68
2023/08/31 03:49:27;;;;;;;13.43;5.18;;;;;;;;;;6252752;27;20049;-68
2023/08/31 03:52:32;;;;;;;14.05;4.25;;;;;;;;;;6293501;27;20053;-68
2023/08/31 03:55:42;;;;;;;7.78;4.25;;;;;;;;;;6262424;27;20064;-68
2023/08/31 03:58:44;;;;;;;8.82;3.10;;;;;;;;;;6288157;27;20564;-68
2023/08/31 04:01:46;;;;;;;7.82;4.93;;;;;;;;;;6258850;27;20342;-68
2023/08/31 04:04:48;;;;;;;12.05;4.13;;;;;;;;;;6252529;27;20133;-68
2023/08/31 04:07:51;;;;;;;6.53;3.30;;;;;;;;;;6251803;28;20093;-68
2023/08/31 04:10:53;;;;;;;8.02;4.82;;;;;;;;;;6258926;28;20083;-68
2023/08/31 04:13:55;;;;;;;8.90;3.50;;;;;;;;;;6273628;28;20182;-68
2023/08/31 04:16:57;;;;;;;8.18;3.72;;;;;;;;;;6315501;28;20055;-68
2023/08/31 04:19:59;;;;;;;7.30;3.33;;;;;;;;;;6249992;27;20061;-68
2023/08/31 04:23:02;;;;;;;13.30;3.67;;;;;;;;;;6276142;28;20056;-67
2023/08/31 04:26:14;;;;;;;9.32;3.60;;;;;;;;;;6265300;28;20078;-68
2023/08/31 04:29:16;;;;;;;8.40;3.55;;;;;;;;;;6241628;27;20102;-68
2023/08/31 04:32:18;;;;;;;7.80;3.63;;;;;;;;;;6276626;27;20602;-67
2023/08/31 04:35:20;;;;;;;6.10;3.38;;;;;;;;;;6245684;28;20049;-66
2023/08/31 04:38:22;;;;;;;6.50;3.15;;;;;;;;;;6296708;28;20045;-67
2023/08/31 04:41:24;;;;;;;6.45;3.13;;;;;;;;;;6251325;28;20071;-67
2023/08/31 04:44:26;;;;;;;7.60;3.95;;;;;;;;;;6285793;27;20035;-67
2023/08/31 04:47:33;;;;;;;5.82;4.18;;;;;;;;;;6250999;27;20147;-67
2023/08/31 04:50:35;;;;;;;12.35;3.88;;;;;;;;;;6263160;28;20133;-68
2023/08/31 04:53:37;;;;;;;7.55;3.25;;;;;;;;;;6307271;28;20043;-66
2023/08/31 04:56:39;;;;;;;9.18;3.55;;;;;;;;;;6232606;28;20736;-67
2023/08/31 04:59:41;;;;;;;7.70;3.78;;;;;;;;;;6253067;28;20046;-67
2023/08/31 05:02:44;;;;;;;8.65;4.47;;;;;;;;;;6267796;28;20192;-67
2023/08/31 05:05:46;;;;;;;8.50;3.65;;;;;;;;;;6291996;28;20063;-67
2023/08/31 05:08:48;;;;;;;7.97;4.55;;;;;;;;;;6255705;28;20042;-66
2023/08/31 05:11:53;;;;;;;6.38;3.22;;;;;;;;;;6267467;27;20053;-67
2023/08/31 05:14:55;;;;;;;9.43;3.60;;;;;;;;;;6251889;27;20053;-67
2023/08/31 05:17:57;;;;;;;9.20;3.85;;;;;;;;;;6261887;27;20053;-66
2023/08/31 05:21:00;;;;;;;7.15;2.72;;;;;;;;;;6255965;27;20595;-66
2023/08/31 05:24:05;;;;;;;7.55;2.92;;;;;;;;;;6246443;27;20051;-66
2023/08/31 05:27:07;;;;;;;6.57;2.50;;;;;;;;;;6236406;28;20093;-66
2023/08/31 05:30:12;;;;;;;7.32;2.75;;;;;;;;;;6235182;27;20049;-66
2023/08/31 05:33:22;;;;;;;6.63;3.22;;;;;;;;;;6330334;27;20045;-66
2023/08/31 05:36:24;;;;;;;4.95;2.88;;;;;;;;;;6244361;27;20052;-66
2023/08/31 05:39:26;;;;;;;6.82;3.05;;;;;;;;;;6247690;27;20034;-67
2023/08/31 05:42:28;;;;;;;4.43;2.70;;;;;;;;;;6272264;27;20681;-66
2023/08/31 05:45:33;;;;;;;5.45;3.15;;;;;;;;;;6256125;27;20041;-67
2023/08/31 05:48:36;;;;;;;4.13;2.45;;;;;;;;;;6261037;27;20077;-67
2023/08/31 05:51:38;;;;;;;7.45;3.05;;;;;;;;;;6259726;27;20049;-67
2023/08/31 05:54:40;;;;;;;6.35;4.00;;;;;;;;;;6247278;27;20138;-66
2023/08/31 05:57:42;;;;;;;5.15;1.98;;;;;;;;;;6237952;27;20041;-67
2023/08/31 06:00:45;;;;;;;6.03;2.03;;;;;;;;;;6256485;27;20576;-67
2023/08/31 06:03:50;;;;;;;6.15;1.98;;;;;;;;;;6248620;27;20058;-68
2023/08/31 06:06:53;;;;;;;4.55;2.47;;;;;;;;;;6251232;27;20052;-67
2023/08/31 06:10:07;;;;;;;8.82;2.55;;;;;;;;;;6273103;27;20046;-67
2023/08/31 06:13:09;;;;;;;3.53;1.55;;;;;;;;;;6290036;27;20049;-68
2023/08/31 06:16:11;;;;;;;4.43;2.65;;;;;;;;;;6249269;27;20090;-67
2023/08/31 06:19:17;;;;;;;4.38;2.72;;;;;;;;;;6247133;27;20081;-69
2023/08/31 06:22:21;;;;;;;5.22;1.98;;;;;;;;;;6248222;27;20045;-67
2023/08/31 06:25:23;;;;;;;6.45;2.50;;;;;;;;;;6242191;27;20538;-67
2023/08/31 06:28:26;;;;;;;4.80;2.05;;;;;;;;;;6234480;27;20685;-67
2023/08/31 06:31:28;;;;;;;6.38;2.08;;;;;;;;;;6231982;27;20045;-68
2023/08/31 06:34:31;;;;;;;5.20;2.10;;;;;;;;;;6281898;27;20151;-67
2023/08/31 06:37:33;;;;;;;6.32;3.00;;;;;;;;;;6246056;27;20035;-69
2023/08/31 06:40:35;;;;;;;8.02;2.20;;;;;;;;;;6255744;27;20043;-69
2023/08/31 06:43:37;;;;;;;5.15;2.38;;;;;;;;;;6283801;27;20525;-69
2023/08/31 06:46:39;;;;;;;7.78;2.78;;;;;;;;;;6264877;27;20077;-70
2023/08/31 06:49:41;;;;;;;8.32;3.10;;;;;;;;;;6271930;27;20041;-70
2023/08/31 06:52:46;;;;;;;5.35;2.50;;;;;;;;;;6249430;27;20042;-70
2023/08/31 06:55:49;;;;;;;6.45;3.13;;;;;;;;;;6276244;27;20038;-70
2023/08/31 06:58:54;;;;;;;5.78;2.75;;;;;;;;;;6231525;28;20044;-70
2023/08/31 07:01:56;;;;;;;4.40;2.28;;;;;;;;;;6269754;27;20071;-70
2023/08/31 07:04:58;;;;;;;5.35;1.88;;;;;;;;;;6233883;28;20777;-70
2023/08/31 07:08:00;;;;;;;5.43;1.83;;;;;;;;;;6233111;27;20051;-70
2023/08/31 07:11:02;;;;;;;3.88;1.85;;;;;;;;;;6243800;27;20050;-70
2023/08/31 07:14:04;;;;;;;6.65;2.10;;;;;;;;;;6290780;27;20057;-70
2023/08/31 07:17:06;;;;;;;4.50;2.10;;;;;;;;;;6299539;27;20051;-70
2023/08/31 07:20:14;;;;;;;6.32;1.80;;;;;;;;;;6309166;27;20043;-70
2023/08/31 07:23:16;;;;;;;5.78;2.53;;;;;;;;;;6280761;27;20087;-70
2023/08/31 07:26:18;;;;;;;7.53;1.52;;;;;;;;;;6285590;27;20052;-70
2023/08/31 07:29:21;;;;;;;3.28;1.15;;;;;;;;;;6272086;27;20050;-70
2023/08/31 07:32:37;;;;;;;4.32;2.05;;;;;;;;;;6269908;27;20467;-70
2023/08/31 07:35:39;;;;;;;4.82;2.65;;;;;;;;;;6228329;28;20091;-70
2023/08/31 07:38:41;;;;;;;5.05;1.23;;;;;;;;;;6232290;28;20054;-70
2023/08/31 07:41:43;;;;;;;4.25;1.20;;;;;;;;;;6264118;27;20096;-70
2023/08/31 07:44:46;;;;;;;5.38;1.35;;;;;;;;;;6231394;28;20047;-70
2023/08/31 07:47:48;;;;;;;5.07;1.33;;;;;;;;;;6266662;27;20535;-70
2023/08/31 07:50:51;;;;;;;5.25;1.13;;;;;;;;;;6256985;27;20839;-70
2023/08/31 07:53:53;;;;;;;4.80;1.88;;;;;;;;;;6253333;27;20049;-70
2023/08/31 07:56:55;;;;;;;4.20;1.10;;;;;;;;;;6284755;27;20517;-70
2023/08/31 07:59:57;;;;;;;3.95;1.15;;;;;;;;;;6232580;28;20045;-70
2023/08/31 08:02:59;;;;;;;5.65;1.30;;;;;;;;;;6238358;28;20053;-70
2023/08/31 08:06:03;;;;;;;6.03;1.52;;;;;;;;;;6262368;27;20452;-70
2023/08/31 08:09:05;;;;;;;4.55;1.50;;;;;;;;;;6227049;28;20185;-70
2023/08/31 08:12:08;;;;;;;2.83;1.00;;;;;;;;;;6245378;27;20049;-71
2023/08/31 08:15:10;;;;;;;4.28;1.23;;;;;;;;;;6240220;28;20134;-70
2023/08/31 08:18:12;;;;;;;5.25;1.23;;;;;;;;;;6271144;28;20045;-70
2023/08/31 08:21:14;;;;;;;4.95;2.55;;;;;;;;;;6269092;28;20046;-70
2023/08/31 08:24:16;;;;;;;6.38;1.13;;;;;;;;;;6269835;28;20045;-70
2023/08/31 08:27:18;;;;;;;5.28;1.25;;;;;;;;;;6269422;28;20076;-70
2023/08/31 08:30:20;;;;;;;4.55;1.42;;;;;;;;;;6226945;28;20052;-70
2023/08/31 08:33:23;;;;;;;5.10;1.27;;;;;;;;;;6223518;28;20061;-71
2023/08/31 08:36:25;;;;;;;2.88;1.30;;;;;;;;;;6273520;28;20485;-70
2023/08/31 08:39:27;;;;;;;4.80;1.02;;;;;;;;;;6242515;28;20849;-71
2023/08/31 08:42:31;;;;;;;3.05;1.23;;;;;;;;;;6273448;28;20056;-70
2023/08/31 08:45:38;;;;;;;4.82;1.50;;;;;;;;;;6274584;28;20654;-70
2023/08/31 08:48:41;;;;;;;3.72;1.65;;;;;;;;;;6254709;27;20061;-70
2023/08/31 08:51:43;;;;;;;5.22;1.80;;;;;;;;;;6327473;27;20703;-70
2023/08/31 08:54:45;;;;;;;5.60;1.40;;;;;;;;;;6224601;28;20050;-71
2023/08/31 08:57:47;;;;;;;4.10;1.13;;;;;;;;;;6219757;27;20896;-70
2023/08/31 09:00:50;;;;;;;8.32;2.10;;;;;;;;;;6240689;28;20072;-71
2023/08/31 09:03:53;;;;;;;5.25;1.45;;;;;;;;;;6243427;28;20041;-71
2023/08/31 09:06:55;;;;;;;6.68;3.10;;;;;;;;;;6287987;27;20610;-71
2023/08/31 09:09:57;;;;;;;5.28;1.45;;;;;;;;;;6237615;28;20064;-71
2023/08/31 09:13:00;;;;;;;6.05;2.05;;;;;;;;;;6243543;27;20046;-70
2023/08/31 09:16:02;;;;;;;4.65;1.55;;;;;;;;;;6223623;28;20058;-71
2023/08/31 09:19:21;;;;;;;5.15;2.03;;;;;;;;;;6226026;28;20127;-71
2023/08/31 09:22:23;;;;;;;5.80;1.52;;;;;;;;;;6235694;28;20077;-70
2023/08/31 09:25:25;;;;;;;9.18;2.63;;;;;;;;;;6237096;27;20472;-70
2023/08/31 09:28:28;;;;;;;5.72;2.08;;;;;;;;;;6248480;27;20159;-70
2023/08/31 09:31:36;;;;;;;6.05;2.63;;;;;;;;;;6292031;27;20443;-70
2023/08/31 09:34:39;;;;;;;6.18;2.03;;;;;;;;;;6258750;27;20053;-69
2023/08/31 09:37:41;;;;;;;6.63;2.63;;;;;;;;;;6237637;28;20090;-71
2023/08/31 09:40:43;;;;;;;4.85;1.83;;;;;;;;;;6239143;28;20033;-71
2023/08/31 09:43:47;;;;;;;5.35;2.13;;;;;;;;;;6236350;28;20056;-70
2023/08/31 09:46:49;;;;;;;4.78;2.05;;;;;;;;;;6226632;28;20069;-70
2023/08/31 09:50:08;;;;;;;10.05;2.90;;;;;;;;;;6250568;27;20051;-70
2023/08/31 09:53:11;;;;;;;5.30;1.83;;;;;;;;;;6245844;27;20045;-70
2023/08/31 09:56:18;;;;;;;6.60;2.15;;;;;;;;;;6292240;27;20051;-71
2023/08/31 09:59:20;;;;;;;5.10;1.77;;;;;;;;;;6289231;27;20068;-70
2023/08/31 10:02:22;;;;;;;9.13;2.30;;;;;;;;;;6312445;27;20048;-70
2023/08/31 10:05:25;;;;;;;5.70;2.10;;;;;;;;;;6226740;27;20529;-70
2023/08/31 10:08:31;;;;;;;6.93;2.05;;;;;;;;;;6228356;28;20049;-73
2023/08/31 10:11:33;;;;;;;5.15;1.77;;;;;;;;;;6292246;27;20043;-71
2023/08/31 10:14:36;;;;;;;6.25;2.30;;;;;;;;;;6242602;28;20109;-71
2023/08/31 10:17:39;;;;;;;4.25;2.10;;;;;;;;;;6232801;28;20113;-69
2023/08/31 10:20:43;;;;;;;5.05;2.08;;;;;;;;;;6265733;27;20043;-71
2023/08/31 10:23:46;;;;;;;;;;;;;;;;;;6233798;27;20041;-70
2023/08/31 10:26:48;;;;;;;6.40;2.45;;;;;;;;;;6265302;27;19946;-69
2023/08/31 10:29:50;;;;;;;7.93;2.28;;;;;;;;;;6257027;27;20048;-71
2023/08/31 10:33:07;;;;;;;7.38;2.25;;;;;;;;;;6271348;27;20056;-71
2023/08/31 10:36:14;;;;;;;5.43;2.15;;;;;;;;;;6236844;28;20057;-71
2023/08/31 10:39:19;;;;;;;5.35;2.22;;;;;;;;;;6230534;28;20045;-71
2023/08/31 10:42:23;;;;;;;4.95;1.98;;;;;;;;;;6295939;27;20055;-69
2023/08/31 10:45:25;;;;;;;4.57;2.78;;;;;;;;;;6231733;28;20060;-69
2023/08/31 10:48:28;;;;;;;9.13;2.42;;;;;;;;;;6269691;27;20106;-70
2023/08/31 10:51:31;;;;;;;5.85;1.67;;;;;;;;;;6283863;27;20046;-69
2023/08/31 10:54:34;;;;;;;4.97;2.00;;;;;;;;;;6265787;27;20436;-70
2023/08/31 10:57:36;;;;;;;4.82;1.48;;;;;;;;;;6241279;27;20053;-70
2023/08/31 11:00:52;;;;;;;5.03;1.88;;;;;;;;;;6252615;27;20542;-70
2023/08/31 11:03:58;;;;;;;4.78;2.67;;;;;;;;;;6266096;27;20158;-69
2023/08/31 11:07:14;;;;;;;6.72;2.38;;;;;;;;;;6251452;27;20528;-69
2023/08/31 11:10:22;;;;;;;5.50;2.30;;;;;;;;;;6263842;27;20049;-70
2023/08/31 11:13:24;;;;;;;6.30;2.40;;;;;;;;;;6245516;27;20069;-70
2023/08/31 11:16:26;;;;;;;5.88;2.20;;;;;;;;;;6279532;27;20042;-70
2023/08/31 11:19:28;;;;;;;6.10;2.10;;;;;;;;;;6267895;27;20798;-70
2023/08/31 11:22:31;;;;;;;6.53;2.33;;;;;;;;;;6267727;27;20042;-70
2023/08/31 11:25:34;;;;;;;7.22;1.85;;;;;;;;;;6229563;28;20591;-70
2023/08/31 11:28:36;;;;;;;7.55;2.63;;;;;;;;;;6254462;27;20057;-70
2023/08/31 11:31:40;;;;;;;6.68;3.08;;;;;;;;;;6222653;27;20046;-70
2023/08/31 11:34:44;;;;;;;5.10;2.10;;;;;;;;;;6239032;27;20041;-70
2023/08/31 11:37:50;;;;;;;5.80;1.95;;;;;;;;;;6266296;27;20050;-70
2023/08/31 11:40:56;;;;;;;5.05;1.90;;;;;;;;;;6262035;27;20062;-69
2023/08/31 11:43:58;;;;;;;8.15;2.78;;;;;;;;;;6236363;27;20487;-69
2023/08/31 11:47:00;;;;;;;6.63;2.70;;;;;;;;;;6275413;27;20078;-69
2023/08/31 11:50:04;;;;;;;5.32;2.42;;;;;;;;;;6230422;27;20423;-69
2023/08/31 11:53:06;;;;;;;5.03;1.90;;;;;;;;;;6233979;27;20057;-68
2023/08/31 11:56:10;;;;;;;6.13;2.38;;;;;;;;;;6229929;28;20054;-71
2023/08/31 11:59:18;;;;;;;6.78;2.10;;;;;;;;;;6224549;28;20033;-68
2023/08/31 12:02:20;;;;;;;5.93;2.13;;;;;;;;;;6287863;27;20181;-69
2023/08/31 12:05:22;;;;;;;4.97;1.40;;;;;;;;;;6239095;27;20056;-69
2023/08/31 12:08:28;;;;;;;4.93;2.05;;;;;;;;;;6243292;27;20037;-69
2023/08/31 12:11:30;;;;;;;5.18;2.13;;;;;;;;;;6298540;27;20030;-68
2023/08/31 12:14:32;;;;;;;5.40;2.03;;;;;;;;;;6240755;28;20041;-68
2023/08/31 12:17:42;;;;;;;5.25;2.47;;;;;;;;;;6278900;28;20197;-68
2023/08/31 12:20:50;;;;;;;4.32;1.58;;;;;;;;;;6244353;28;20109;-68
2023/08/31 12:23:53;;;;;;;4.80;1.67;;;;;;;;;;6258788;27;20056;-69
2023/08/31 12:26:55;;;;;;;4.32;2.25;;;;;;;;;;6281511;27;20665;-69
2023/08/31 12:29:57;;;;;;;4.45;1.50;;;;;;;;;;6252415;27;20033;-69
2023/08/31 12:33:00;;;;;;;5.30;2.08;;;;;;;;;;6274628;27;20043;-69
2023/08/31 12:36:02;;;;;;;4.75;2.17;;;;;;;;;;6271255;27;20569;-69
2023/08/31 12:39:09;;;;;;;4.22;1.80;;;;;;;;;;6267423;27;20045;-69
2023/08/31 12:42:11;;;;;;;3.97;1.77;;;;;;;;;;6312340;27;20051;-69
2023/08/31 12:45:24;;;;;;;5.97;1.73;;;;;;;;;;6298474;27;20692;-69
2023/08/31 12:48:26;;;;;;;4.22;1.40;;;;;;;;;;6248014;27;20041;-69
2023/08/31 12:51:29;;;;;;;5.10;1.80;;;;;;;;;;6240662;27;20117;-69
2023/08/31 12:54:31;;;;;;;5.53;1.92;;;;;;;;;;6279630;27;20041;-69
2023/08/31 12:57:33;;;;;;;5.63;1.88;;;;;;;;;;6276321;27;20187;-69
2023/08/31 13:00:35;;;;;;;4.50;1.77;;;;;;;;;;6260441;27;20056;-69
2023/08/31 13:03:37;;;;;;;5.18;1.65;;;;;;;;;;6259917;27;20045;-69
2023/08/31 13:06:39;;;;;;;4.97;1.20;;;;;;;;;;6254890;27;20061;-69
2023/08/31 13:09:41;;;;;;;4.40;1.42;;;;;;;;;;6243160;27;20045;-70
2023/08/31 13:12:43;;;;;;;4.82;1.73;;;;;;;;;;6242519;27;20119;-70
2023/08/31 13:15:49;;;;;;;6.03;1.80;;;;;;;;;;6246271;27;20045;-70
2023/08/31 13:18:51;;;;;;;3.72;1.38;;;;;;;;;;6262065;27;20037;-69
2023/08/31 13:21:53;;;;;;;4.85;1.58;;;;;;;;;;6240081;27;20057;-71
2023/08/31 13:24:56;;;;;;;4.95;1.55;;;;;;;;;;6273081;27;20141;-71
2023/08/31 13:27:58;;;;;;;4.63;1.80;;;;;;;;;;6258125;27;20050;-70
2023/08/31 13:31:00;;;;;;;4.32;1.52;;;;;;;;;;6268231;27;20041;-71
2023/08/31 13:34:03;;;;;;;4.82;1.80;;;;;;;;;;6304565;27;20065;-70
2023/08/31 13:37:05;;;;;;;4.32;1.88;;;;;;;;;;6239492;27;20152;-71
2023/08/31 13:40:09;;;;;;;6.03;1.83;;;;;;;;;;6288792;27;20064;-71
2023/08/31 13:43:11;;;;;;;5.82;2.30;;;;;;;;;;6259741;27;20053;-70
2023/08/31 13:46:14;;;;;;;4.25;2.45;;;;;;;;;;6244797;28;20528;-70
2023/08/31 13:49:16;;;;;;;5.53;1.60;;;;;;;;;;6244397;27;20099;-70
2023/08/31 13:52:21;;;;;;;4.07;1.63;;;;;;;;;;6310394;27;20041;-70
2023/08/31 13:55:23;;;;;;;6.50;2.22;;;;;;;;;;6247359;27;20050;-70
2023/08/31 13:58:25;;;;;;;4.90;1.35;;;;;;;;;;6255153;27;20061;-70
2023/08/31 14:01:28;;;;;;;4.60;1.40;;;;;;;;;;6236636;28;20042;-69
2023/08/31 14:04:30;;;;;;;6.38;1.33;;;;;;;;;;6232135;27;20892;-69
2023/08/31 14:07:33;;;;;;;4.53;1.73;;;;;;;;;;6262805;27;20444;-70
2023/08/31 14:10:39;;;;;;;4.25;1.17;;;;;;;;;;6245874;27;20048;-71
2023/08/31 14:13:46;;;;;;;7.28;1.67;;;;;;;;;;6247208;27;20129;-71
2023/08/31 14:16:48;;;;;;;5.93;1.67;;;;;;;;;;6278100;27;20042;-71
2023/08/31 14:19:50;;;;;;;5.22;1.80;;;;;;;;;;6243144;27;20061;-70
2023/08/31 14:22:52;;;;;;;5.55;1.48;;;;;;;;;;6246318;27;20062;-71
2023/08/31 14:26:09;;;;;;;4.15;2.22;;;;;;;;;;6246832;27;20306;-71
2023/08/31 14:29:11;;;;;;;4.18;1.45;;;;;;;;;;6250114;27;20060;-70
2023/08/31 14:32:13;;;;;;;5.10;1.55;;;;;;;;;;6248120;27;20058;-70
2023/08/31 14:35:15;;;;;;;2.67;1.00;;;;;;;;;;6264837;27;20046;-70
2023/08/31 14:38:21;;;;;;;4.78;1.67;;;;;;;;;;6276487;27;20553;-71
2023/08/31 14:41:23;;;;;;;6.57;1.77;;;;;;;;;;6254444;27;20967;-71
2023/08/31 14:44:25;;;;;;;4.10;1.48;;;;;;;;;;6294192;27;20217;-71
2023/08/31 14:47:27;;;;;;;7.63;2.13;;;;;;;;;;6233530;28;20193;-70
2023/08/31 14:50:30;;;;;;;6.25;1.88;;;;;;;;;;6236622;27;20052;-70
2023/08/31 14:53:32;;;;;;;4.50;2.03;;;;;;;;;;6258862;27;20709;-71
2023/08/31 14:56:34;;;;;;;5.03;2.03;;;;;;;;;;6253359;27;20078;-71
2023/08/31 14:59:36;;;;;;;4.28;1.33;;;;;;;;;;6230466;28;20191;-71
2023/08/31 15:02:38;;;;;;;5.18;2.35;;;;;;;;;;6302144;27;20161;-71
2023/08/31 15:05:43;;;;;;;5.03;1.23;;;;;;;;;;6257337;27;20038;-71
2023/08/31 15:08:45;;;;;;;4.68;2.08;;;;;;;;;;6288201;27;20055;-70
2023/08/31 15:11:47;;;;;;;4.85;1.70;;;;;;;;;;6314614;27;20816;-71
2023/08/31 15:14:49;;;;;;;7.32;2.50;;;;;;;;;;6242925;27;20045;-71
2023/08/31 15:17:51;;;;;;;6.32;2.22;;;;;;;;;;6267162;27;20560;-72
2023/08/31 15:20:54;;;;;;;4.72;1.50;;;;;;;;;;6268222;27;20473;-70
2023/08/31 15:23:56;;;;;;;5.95;1.65;;;;;;;;;;6263872;27;20550;-71
2023/08/31 15:26:59;;;;;;;4.75;1.60;;;;;;;;;;6258383;27;20057;-71
2023/08/31 15:30:03;;;;;;;4.90;1.45;;;;;;;;;;6232839;28;20141;-72
2023/08/31 15:33:05;;;;;;;6.35;1.70;;;;;;;;;;6239620;27;20053;-70
2023/08/31 15:36:08;;;;;;;6.50;1.83;;;;;;;;;;6303011;27;20561;-69
2023/08/31 15:39:19;;;;;;;4.10;1.10;;;;;;;;;;6250394;28;20051;-71
2023/08/31 15:42:29;;;;;;;4.97;1.73;;;;;;;;;;6245212;27;20070;-70
2023/08/31 15:45:31;;;;;;;5.88;1.85;;;;;;;;;;6221768;28;20448;-70
2023/08/31 15:48:34;;;;;;;5.95;1.70;;;;;;;;;;6259975;27;20586;-70
2023/08/31 15:51:38;;;;;;;;;;;;;;;;;;6223798;28;20046;-69
2023/08/31 15:54:40;;;;;;;4.10;2.13;;;;;;;;;;6266231;27;19925;-69
2023/08/31 15:57:42;;;;;;;6.15;1.52;;;;;;;;;;6240248;28;20045;-71
2023/08/31 16:00:44;;;;;;;4.97;1.70;;;;;;;;;;6246296;27;20086;-70
2023/08/31 16:03:47;;;;;;;5.00;1.67;;;;;;;;;;6258042;27;20669;-69
2023/08/31 16:06:50;;;;;;;6.18;1.70;;;;;;;;;;6241509;28;20508;-70
2023/08/31 16:09:52;;;;;;;6.38;2.10;;;;;;;;;;6256287;27;20038;-69
2023/08/31 16:12:56;;;;;;;6.47;1.67;;;;;;;;;;6256910;27;20085;-69
2023/08/31 16:15:58;;;;;;;3.97;2.05;;;;;;;;;;6251601;28;20068;-70
2023/08/31 16:19:00;;;;;;;5.85;1.63;;;;;;;;;;6237608;27;20521;-69
2023/08/31 16:22:03;;;;;;;5.70;2.35;;;;;;;;;;6246735;28;20185;-70
2023/08/31 16:25:06;;;;;;;4.60;2.30;;;;;;;;;;6296310;27;20239;-69
2023/08/31 16:28:09;;;;;;;4.45;1.48;;;;;;;;;;6274910;28;20062;-69
2023/08/31 16:31:12;;;;;;;5.53;2.20;;;;;;;;;;6244322;28;20192;-69
2023/08/31 16:34:14;;;;;;;3.65;1.80;;;;;;;;;;6262160;28;20475;-70
2023/08/31 16:37:16;;;;;;;6.65;3.42;;;;;;;;;;6227049;28;20046;-69
2023/08/31 16:40:18;;;;;;;5.68;2.17;;;;;;;;;;6240049;27;20052;-70
2023/08/31 16:43:20;;;;;;;4.70;1.95;;;;;;;;;;6267648;28;20054;-70
2023/08/31 16:46:22;;;;;;;6.97;1.85;;;;;;;;;;6249644;28;20050;-70
2023/08/31 16:49:24;;;;;;;4.65;2.55;;;;;;;;;;6252808;28;20047;-70
2023/08/31 16:52:26;;;;;;;3.70;1.65;;;;;;;;;;6253546;28;20045;-70
2023/08/31 16:55:29;;;;;;;5.13;1.55;;;;;;;;;;6251269;27;20049;-69
2023/08/31 16:58:32;;;;;;;42.15;23.70;;;;;;;;;;6226496;28;20053;-67
2023/08/31 17:01:34;;;;;;;26.48;15.07;;;;;;;;;;6273927;28;20088;-68
2023/08/31 17:04:36;;;;;;;58.13;35.25;;;;;;;;;;6300056;27;20529;-68
2023/08/31 17:07:38;;;;;;;6.32;2.90;;;;;;;;;;6261059;28;20810;-69
2023/08/31 17:10:40;;;;;;;6.28;2.78;;;;;;;;;;6287564;27;20049;-68
2023/08/31 17:13:42;;;;;;;5.28;2.40;;;;;;;;;;6279954;27;20049;-68
2023/08/31 17:16:45;;;;;;;13.55;6.35;;;;;;;;;;6291435;27;20136;-69
2023/08/31 17:19:51;;;;;;;8.48;3.35;;;;;;;;;;6268892;27;20045;-69
2023/08/31 17:22:53;;;;;;;10.55;5.30;;;;;;;;;;6243452;27;20045;-69
2023/08/31 17:25:55;;;;;;;27.60;17.55;;;;;;;;;;6254778;27;20154;-69
2023/08/31 17:28:57;;;;;;;22.17;12.82;;;;;;;;;;6253648;27;20512;-69
2023/08/31 17:31:59;;;;;;;25.33;17.40;;;;;;;;;;6220042;28;20049;-69
2023/08/31 17:35:06;;;;;;;219.15;148.13;;;;;;;;;;6244040;27;20060;-69
2023/08/31 17:38:12;;;;;;;13.55;6.53;;;;;;;;;;6232528;27;20557;-69
2023/08/31 17:41:21;;;;;;;71.47;52.90;;;;;;;;;;6231501;28;20054;-69
2023/08/31 17:44:24;;;;;;;28.77;20.17;;;;;;;;;;6221183;28;20688;-69
2023/08/31 17:47:27;;;;;;;173.57;113.13;;;;;;;;;;6238389;28;20501;-70
2023/08/31 17:50:29;;;;;;;139.05;89.20;;;;;;;;;;6247065;27;20122;-70
2023/08/31 17:53:31;;;;;;;409.95;214.02;;;;;;;;;;6242198;27;20056;-70
2023/08/31 17:56:33;;;;;;;63.80;57.25;;;;;;;;;;6220918;28;20046;-69
2023/08/31 17:59:35;;;;;;;17.13;14.18;;;;;;;;;;6244108;27;20133;-69
2023/08/31 18:02:37;;;;;;;102.40;42.53;;;;;;;;;;6235633;27;20042;-69
2023/08/31 18:05:50;;;;;;;25.65;17.25;;;;;;;;;;6242734;27;20577;-69
2023/08/31 18:08:53;;;;;;;8.20;4.90;;;;;;;;;;6229593;28;20187;-70
2023/08/31 18:11:55;;;;;;;11.85;7.75;;;;;;;;;;6236852;27;20942;-71
2023/08/31 18:14:57;;;;;;;11.48;5.72;;;;;;;;;;6236831;27;20097;-69
2023/08/31 18:17:59;;;;;;;13.80;7.13;;;;;;;;;;6234925;28;20751;-69
2023/08/31 18:21:02;;;;;;;6.85;3.45;;;;;;;;;;6269392;27;20602;-70